Terminal Aerodrome Forecast
Issued by NWS Greer, SC

Current Version | Previous Version | Text Only | Print | Product List | Glossary On
Versions: 1 2 3 4 5 6 7 8 9 10 11 12 13 14 15 16 17 18 19 20 21
000
FTUS42 KGSP 222320
TAFCLT
TAF
KCLT 222320Z 2300/2324 02003KT P6SM SCT040 OVC050
     FM230500 08003KT P6SM OVC025
     FM230700 07003KT 4SM BR BKN015
     FM231100 05003KT 1 1/2SM BR BKN015
     FM231400 09003KT P6SM BKN020
     FM231700 15004KT P6SM SCT060=

USA.gov is the U.S. government's official web portal to all federal, state and local government web resources and services.